Time;durP1;ratioP1;P1;durP2;ratioP2;P2;SDS_P1;SDS_P2;PMS_P1;PMS_P2;Temp;Humidity;BMP_temperature;BMP_pressure;BME280_temperature;BME280_humidity;BME280_pressure;Samples;Min_cycle;Max_cycle;Signal;HPM_P1;HPM_P2
2023/12/07 00:01:10;;;;;;;2.90;2.27;;;20.70;56.30;;;;;;4991822;28;20576;-69
2023/12/07 00:03:36;;;;;;;3.00;2.53;;;20.70;56.30;;;;;;4993117;28;20181;-68
2023/12/07 00:06:02;;;;;;;3.10;2.70;;;20.70;56.30;;;;;;4993019;28;20205;-68
2023/12/07 00:08:30;;;;;;;2.80;2.40;;;20.70;56.30;;;;;;4993096;28;20239;-68
2023/12/07 00:10:56;;;;;;;2.77;2.40;;;20.70;56.30;;;;;;4991683;28;20648;-68
2023/12/07 00:13:21;;;;;;;3.27;2.63;;;20.70;56.30;;;;;;4993057;28;20419;-68
2023/12/07 00:15:47;;;;;;;3.13;2.50;;;20.70;56.40;;;;;;4992845;28;20296;-68
2023/12/07 00:18:13;;;;;;;2.57;2.37;;;20.70;56.30;;;;;;4992795;28;20199;-68
2023/12/07 00:20:38;;;;;;;2.60;2.40;;;20.70;56.30;;;;;;4992850;28;20416;-69
2023/12/07 00:23:04;;;;;;;2.87;2.57;;;20.70;56.30;;;;;;4992814;28;20223;-69
2023/12/07 00:25:30;;;;;;;2.60;2.40;;;20.70;56.30;;;;;;4992578;28;20670;-68
2023/12/07 00:27:55;;;;;;;2.70;2.50;;;20.70;56.30;;;;;;4992689;28;20184;-67
2023/12/07 00:30:21;;;;;;;2.43;2.23;;;20.70;56.30;;;;;;4992656;28;20538;-68
2023/12/07 00:32:47;;;;;;;2.97;2.60;;;20.70;56.30;;;;;;4992660;28;20292;-68
2023/12/07 00:35:14;;;;;;;2.77;2.37;;;20.70;56.30;;;;;;4992488;28;20251;-68
2023/12/07 00:37:39;;;;;;;2.93;2.33;;;20.70;56.30;;;;;;4992230;28;20644;-68
2023/12/07 00:40:07;;;;;;;2.63;2.37;;;20.70;56.30;;;;;;4992475;28;20452;-68
2023/12/07 00:42:34;;;;;;;2.97;2.43;;;20.70;56.30;;;;;;4992400;28;20191;-69
2023/12/07 00:45:00;;;;;;;3.23;2.70;;;20.70;56.20;;;;;;4992303;28;20880;-68
2023/12/07 00:47:25;;;;;;;2.53;2.33;;;20.60;56.10;;;;;;4992354;28;20496;-68
2023/12/07 00:49:51;;;;;;;2.40;2.20;;;20.70;56.20;;;;;;4992264;28;20187;-68
2023/12/07 00:52:16;;;;;;;2.80;2.50;;;20.70;56.20;;;;;;4992288;28;20219;-68
2023/12/07 00:54:42;;;;;;;3.47;3.17;;;20.60;56.10;;;;;;4992073;28;20642;-68
2023/12/07 00:57:08;;;;;;;3.07;2.80;;;20.70;56.20;;;;;;4992139;28;20185;-69
2023/12/07 00:59:33;;;;;;;3.70;2.70;;;20.60;56.20;;;;;;4992057;28;20578;-69
2023/12/07 01:02:06;;;;;;;2.40;2.10;;;20.60;56.10;;;;;;4992117;28;20180;-68
2023/12/07 01:04:33;;;;;;;2.90;2.23;;;20.60;56.10;;;;;;4991943;28;20212;-69
2023/12/07 01:06:59;;;;;;;2.50;2.07;;;20.60;56.10;;;;;;4991913;28;20427;-68
2023/12/07 01:09:25;;;;;;;3.30;2.50;;;20.60;56.70;;;;;;4991914;28;20412;-68
2023/12/07 01:11:51;;;;;;;2.90;2.60;;;20.60;56.10;;;;;;4991818;28;20412;-68
2023/12/07 01:14:17;;;;;;;2.47;2.27;;;20.60;56.10;;;;;;4991900;28;20424;-68
2023/12/07 01:16:43;;;;;;;2.50;2.30;;;20.60;56.10;;;;;;4992000;28;20205;-68
2023/12/07 01:19:09;;;;;;;2.10;1.90;;;20.60;56.10;;;;;;4991683;28;20459;-68
2023/12/07 01:21:35;;;;;;;2.50;2.30;;;20.60;56.10;;;;;;4991656;28;20416;-69
2023/12/07 01:24:00;;;;;;;3.20;2.50;;;20.60;56.10;;;;;;4991701;28;20412;-69
2023/12/07 01:26:26;;;;;;;3.10;2.17;;;20.60;56.10;;;;;;4991529;28;20211;-68
2023/12/07 01:28:53;;;;;;;2.20;2.00;;;20.60;56.10;;;;;;4991835;28;20212;-68
2023/12/07 01:31:19;;;;;;;2.63;2.43;;;20.60;56.10;;;;;;4990142;28;20424;-68
2023/12/07 01:33:44;;;;;;;2.50;2.00;;;20.60;56.10;;;;;;4990131;28;20251;-67
2023/12/07 01:36:11;;;;;;;3.23;2.93;;;20.60;56.10;;;;;;4991438;28;20243;-69
2023/12/07 01:38:37;;;;;;;3.80;2.00;;;20.60;56.10;;;;;;4991464;28;20985;-68
2023/12/07 01:41:03;;;;;;;2.50;2.03;;;20.60;56.10;;;;;;4991409;28;20527;-68
2023/12/07 01:43:28;;;;;;;3.10;2.37;;;20.60;56.10;;;;;;4991370;28;20215;-68
2023/12/07 01:45:57;;;;;;;2.27;2.10;;;20.60;56.10;;;;;;4989883;28;20209;-68
2023/12/07 01:48:24;;;;;;;3.50;2.70;;;20.60;56.10;;;;;;4990635;28;20271;-69
2023/12/07 01:50:51;;;;;;;2.47;2.20;;;20.60;56.10;;;;;;4991318;28;20451;-68
2023/12/07 01:53:17;;;;;;;2.87;2.10;;;20.60;56.10;;;;;;4991264;28;20440;-68
2023/12/07 01:55:43;;;;;;;2.97;2.10;;;20.60;56.10;;;;;;4991199;28;20816;-68
2023/12/07 01:58:10;;;;;;;2.30;2.00;;;20.60;56.10;;;;;;4991143;28;20966;-69
2023/12/07 02:00:35;;;;;;;2.83;2.60;;;20.60;56.10;;;;;;4991175;28;20418;-67
2023/12/07 02:03:04;;;;;;;2.43;2.23;;;20.60;56.10;;;;;;4991088;28;20408;-68
2023/12/07 02:05:31;;;;;;;2.13;1.93;;;20.60;56.10;;;;;;4991042;28;20683;-68
2023/12/07 02:07:58;;;;;;;2.20;2.00;;;20.60;56.10;;;;;;4991128;28;20412;-68
2023/12/07 02:10:24;;;;;;;2.57;2.30;;;20.60;56.10;;;;;;4991023;28;20694;-69
2023/12/07 02:12:50;;;;;;;2.20;2.00;;;20.60;56.10;;;;;;4990996;28;20494;-68
2023/12/07 02:15:16;;;;;;;2.40;2.20;;;20.60;56.10;;;;;;4990927;28;20547;-68
2023/12/07 02:18:04;;;;;;;2.30;2.10;;;20.60;56.10;;;;;;4990910;28;20450;-68
2023/12/07 02:21:14;;;;;;;2.33;2.13;;;20.60;56.10;;;;;;4990976;28;20219;-68
2023/12/07 02:23:42;;;;;;;2.33;1.87;;;20.60;56.20;;;;;;4989573;28;20428;-69
2023/12/07 02:26:10;;;;;;;2.63;2.43;;;20.50;56.10;;;;;;4990661;28;20464;-68
2023/12/07 02:28:35;;;;;;;2.10;1.90;;;20.60;56.20;;;;;;4990761;28;20417;-69
2023/12/07 02:31:01;;;;;;;2.20;1.87;;;20.50;56.10;;;;;;4990022;28;20990;-68
2023/12/07 02:33:27;;;;;;;2.40;2.10;;;20.50;56.10;;;;;;4990627;28;20279;-68
2023/12/07 02:35:52;;;;;;;2.00;1.77;;;20.60;56.20;;;;;;4990474;28;20562;-69
2023/12/07 02:38:20;;;;;;;3.00;2.03;;;20.50;56.10;;;;;;4988161;28;20387;-69
2023/12/07 02:40:47;;;;;;;3.30;2.23;;;20.50;56.20;;;;;;4990367;28;20184;-69
2023/12/07 02:43:13;;;;;;;3.70;2.30;;;20.50;56.20;;;;;;4990705;28;20424;-68
2023/12/07 02:45:38;;;;;;;3.17;2.87;;;20.50;56.10;;;;;;4990507;28;20428;-68
2023/12/07 02:48:04;;;;;;;2.20;2.00;;;20.50;56.10;;;;;;4990629;28;20767;-68
2023/12/07 02:50:30;;;;;;;2.40;2.20;;;20.50;56.10;;;;;;4990900;28;20185;-67
2023/12/07 02:52:56;;;;;;;2.50;2.10;;;20.50;56.10;;;;;;4990610;28;20644;-68
2023/12/07 02:55:22;;;;;;;2.30;2.10;;;20.50;56.10;;;;;;4990782;28;20311;-68
2023/12/07 02:57:47;;;;;;;2.17;1.97;;;20.50;56.10;;;;;;4990646;28;20412;-68
2023/12/07 03:00:14;;;;;;;2.57;2.37;;;20.60;56.20;;;;;;4990371;28;20220;-67
2023/12/07 03:02:40;;;;;;;2.30;1.97;;;20.60;56.20;;;;;;4994364;28;20256;-69
2023/12/07 03:05:07;;;;;;;2.50;2.03;;;20.50;56.10;;;;;;4994274;28;20456;-68
2023/12/07 03:07:35;;;;;;;1.83;1.67;;;20.50;56.10;;;;;;4994290;28;20412;-68
2023/12/07 03:10:02;;;;;;;2.23;2.00;;;20.60;56.20;;;;;;4992876;28;20875;-69
2023/12/07 03:12:28;;;;;;;2.67;2.43;;;20.50;56.10;;;;;;4994213;28;20427;-68
2023/12/07 03:14:53;;;;;;;2.37;2.10;;;20.50;56.10;;;;;;4994102;28;20902;-68
2023/12/07 03:17:19;;;;;;;2.07;1.83;;;20.60;56.20;;;;;;4994405;28;20719;-68
2023/12/07 03:19:45;;;;;;;2.93;2.10;;;20.60;56.20;;;;;;4994031;28;20272;-68
2023/12/07 03:22:13;;;;;;;2.80;2.30;;;20.50;56.10;;;;;;4994290;28;20177;-68
2023/12/07 03:24:38;;;;;;;2.40;1.80;;;20.50;56.10;;;;;;4994164;28;20181;-68
2023/12/07 03:27:05;;;;;;;2.07;1.87;;;20.60;56.20;;;;;;4993944;28;21237;-68
2023/12/07 03:29:31;;;;;;;2.63;2.13;;;20.50;56.10;;;;;;4993891;28;20185;-68
2023/12/07 03:31:57;;;;;;;3.13;2.30;;;20.50;56.10;;;;;;4993836;28;20414;-68
2023/12/07 03:34:23;;;;;;;2.03;1.80;;;20.50;56.10;;;;;;4993826;28;20430;-69
2023/12/07 03:36:49;;;;;;;1.63;1.53;;;20.50;56.10;;;;;;4993700;28;20848;-68
2023/12/07 03:39:18;;;;;;;1.70;1.60;;;20.50;56.10;;;;;;4993646;28;20463;-68
2023/12/07 03:41:44;;;;;;;2.13;1.80;;;20.50;56.10;;;;;;4993621;28;20193;-68
2023/12/07 03:44:09;;;;;;;1.70;1.50;;;20.60;56.20;;;;;;4993663;28;20412;-68
2023/12/07 03:46:35;;;;;;;2.10;1.90;;;20.50;56.10;;;;;;4993527;28;20486;-68
2023/12/07 03:49:01;;;;;;;2.27;2.00;;;20.50;56.10;;;;;;4993566;28;20173;-68
2023/12/07 03:51:27;;;;;;;2.60;2.40;;;20.50;56.10;;;;;;4993522;28;20181;-68
2023/12/07 03:53:54;;;;;;;2.20;2.00;;;20.50;56.10;;;;;;4993406;28;20264;-68
2023/12/07 03:56:30;;;;;;;2.40;2.13;;;20.50;56.10;;;;;;4993308;28;20443;-68
2023/12/07 03:58:56;;;;;;;2.63;2.10;;;20.50;56.10;;;;;;4993225;28;20551;-67
2023/12/07 04:01:26;;;;;;;2.40;1.90;;;20.50;56.10;;;;;;4993402;28;20870;-68
2023/12/07 04:03:52;;;;;;;1.80;1.63;;;20.50;56.10;;;;;;4993323;28;20416;-68
2023/12/07 04:06:18;;;;;;;2.10;1.90;;;20.50;56.10;;;;;;4993180;28;20523;-68
2023/12/07 04:08:44;;;;;;;2.50;2.10;;;20.50;56.10;;;;;;4993139;28;20543;-68
2023/12/07 04:11:10;;;;;;;2.70;1.87;;;20.50;56.10;;;;;;4992719;28;20239;-69
2023/12/07 04:13:36;;;;;;;2.40;2.10;;;20.50;56.10;;;;;;4993090;28;20424;-68
2023/12/07 04:16:03;;;;;;;2.13;1.93;;;20.60;56.30;;;;;;4992952;28;20189;-69
2023/12/07 04:18:28;;;;;;;2.37;2.07;;;20.50;56.20;;;;;;4992969;28;20451;-68
2023/12/07 04:20:54;;;;;;;2.03;1.80;;;20.60;56.20;;;;;;4992938;28;20423;-69
2023/12/07 04:23:19;;;;;;;1.80;1.50;;;20.60;56.20;;;;;;4992891;28;20177;-68
2023/12/07 04:25:45;;;;;;;1.60;1.50;;;20.50;56.20;;;;;;4992606;28;20213;-68
2023/12/07 04:28:11;;;;;;;3.87;2.10;;;20.50;56.20;;;;;;4992792;28;20556;-68
2023/12/07 04:30:37;;;;;;;2.23;2.00;;;20.60;56.20;;;;;;4992721;28;20173;-68
2023/12/07 04:33:02;;;;;;;2.00;1.80;;;20.50;56.20;;;;;;4991367;28;20264;-67
2023/12/07 04:35:28;;;;;;;2.20;1.70;;;20.50;56.20;;;;;;4992617;28;21003;-68
2023/12/07 04:37:54;;;;;;;2.40;1.73;;;20.60;56.30;;;;;;4992728;28;20179;-69
2023/12/07 04:40:20;;;;;;;1.70;1.60;;;20.50;56.20;;;;;;4992545;28;20193;-67
2023/12/07 04:42:45;;;;;;;1.70;1.60;;;20.60;56.20;;;;;;4992471;28;20412;-68
2023/12/07 04:45:12;;;;;;;1.70;1.60;;;20.60;56.30;;;;;;4992394;28;20609;-68
2023/12/07 04:47:37;;;;;;;1.97;1.87;;;20.50;56.20;;;;;;4992440;28;20173;-69
2023/12/07 04:50:03;;;;;;;3.67;1.57;;;20.50;56.10;;;;;;4992282;28;20503;-68
2023/12/07 04:52:28;;;;;;;1.93;1.77;;;20.60;56.20;;;;;;4992418;28;20184;-68
2023/12/07 04:54:54;;;;;;;2.00;1.80;;;20.60;56.20;;;;;;4992155;28;20219;-68
2023/12/07 04:57:20;;;;;;;2.07;1.70;;;20.60;56.20;;;;;;4992258;28;20181;-68
2023/12/07 04:59:46;;;;;;;2.00;1.90;;;20.60;56.20;;;;;;4990786;28;20216;-68
2023/12/07 05:02:14;;;;;;;2.13;1.93;;;20.60;56.20;;;;;;4992087;28;20184;-68
2023/12/07 05:04:40;;;;;;;2.20;1.70;;;20.50;56.10;;;;;;4992235;28;20965;-68
2023/12/07 05:07:05;;;;;;;2.00;1.53;;;20.50;56.10;;;;;;4992112;28;20499;-68
2023/12/07 05:09:31;;;;;;;2.63;2.43;;;20.50;56.10;;;;;;4991944;28;20663;-68
2023/12/07 05:11:58;;;;;;;2.00;1.80;;;20.50;56.10;;;;;;4991935;28;20177;-68
2023/12/07 05:14:23;;;;;;;2.67;1.93;;;20.50;56.10;;;;;;4991934;28;20192;-68
2023/12/07 05:16:52;;;;;;;2.37;1.90;;;20.50;56.10;;;;;;4991753;28;20439;-68
2023/12/07 05:19:20;;;;;;;2.27;2.07;;;20.50;56.20;;;;;;4991728;28;20204;-68
2023/12/07 05:21:46;;;;;;;1.97;1.70;;;20.50;56.20;;;;;;4991675;28;20516;-68
2023/12/07 05:24:12;;;;;;;1.80;1.70;;;20.50;56.10;;;;;;4989450;28;21275;-68
2023/12/07 05:26:38;;;;;;;1.50;1.40;;;20.50;56.10;;;;;;4991526;28;20452;-68
2023/12/07 05:29:04;;;;;;;2.30;2.10;;;20.50;56.10;;;;;;4991610;28;20455;-67
2023/12/07 05:31:29;;;;;;;1.50;1.30;;;20.50;56.20;;;;;;4991683;28;20530;-68
2023/12/07 05:33:55;;;;;;;2.03;1.77;;;20.50;56.20;;;;;;4991603;28;20211;-68
2023/12/07 05:36:21;;;;;;;1.80;1.70;;;20.50;56.20;;;;;;4991394;28;20251;-68
2023/12/07 05:38:47;;;;;;;2.33;1.80;;;20.50;56.20;;;;;;4991342;28;20986;-68
2023/12/07 05:41:12;;;;;;;1.60;1.50;;;20.50;56.10;;;;;;4989999;28;20196;-68
2023/12/07 05:43:41;;;;;;;2.03;1.60;;;20.50;56.20;;;;;;4990470;28;20204;-68
2023/12/07 05:46:07;;;;;;;2.57;2.10;;;20.50;56.10;;;;;;4991642;28;20255;-68
2023/12/07 05:48:33;;;;;;;1.67;1.57;;;20.50;56.20;;;;;;4991416;28;20962;-66
2023/12/07 05:50:58;;;;;;;1.77;1.67;;;20.50;56.20;;;;;;4991438;28;20227;-67
2023/12/07 05:53:24;;;;;;;2.27;1.63;;;20.50;56.20;;;;;;4991312;28;20188;-68
2023/12/07 05:55:50;;;;;;;2.00;1.80;;;20.50;56.20;;;;;;4991207;28;20193;-68
2023/12/07 05:58:17;;;;;;;2.80;1.87;;;20.60;56.30;;;;;;4991121;28;20188;-68
2023/12/07 06:00:46;;;;;;;2.67;1.57;;;20.50;56.20;;;;;;4991185;28;20890;-67
2023/12/07 06:03:13;;;;;;;2.20;2.00;;;20.50;56.20;;;;;;4991216;28;20536;-68
2023/12/07 06:05:38;;;;;;;2.50;2.03;;;20.50;56.20;;;;;;4991014;28;20428;-68
2023/12/07 06:08:04;;;;;;;2.33;2.03;;;20.60;56.30;;;;;;4991019;28;20420;-68
2023/12/07 06:10:30;;;;;;;1.77;1.67;;;20.60;56.30;;;;;;4989595;28;20231;-68
2023/12/07 06:12:58;;;;;;;3.10;2.37;;;20.60;56.40;;;;;;4991014;28;20420;-67
2023/12/07 06:15:24;;;;;;;2.10;1.90;;;20.60;56.40;;;;;;4990831;28;20193;-67
2023/12/07 06:17:49;;;;;;;2.40;1.93;;;20.60;56.40;;;;;;4990928;28;20786;-67
2023/12/07 06:20:15;;;;;;;1.70;1.60;;;20.60;56.40;;;;;;4989454;28;20197;-68
2023/12/07 06:22:41;;;;;;;1.87;1.77;;;20.60;56.40;;;;;;4990896;28;20169;-67
2023/12/07 06:25:08;;;;;;;1.70;1.60;;;20.60;56.40;;;;;;4990683;28;20212;-67
2023/12/07 06:27:35;;;;;;;2.70;2.13;;;20.60;56.40;;;;;;4990774;28;20185;-67
2023/12/07 06:30:00;;;;;;;1.93;1.73;;;20.60;56.40;;;;;;4990821;28;21002;-67
2023/12/07 06:32:26;;;;;;;1.80;1.70;;;20.60;56.40;;;;;;4989443;28;20427;-67
2023/12/07 06:34:52;;;;;;;2.00;1.80;;;20.60;56.40;;;;;;4990210;28;20219;-68
2023/12/07 06:37:17;;;;;;;2.07;1.70;;;20.60;56.30;;;;;;4994834;28;20181;-68
2023/12/07 06:39:43;;;;;;;2.10;1.80;;;20.60;56.40;;;;;;4994701;28;20193;-68
2023/12/07 06:42:08;;;;;;;2.20;2.00;;;20.60;56.30;;;;;;4994824;28;20640;-67
2023/12/07 06:44:34;;;;;;;2.10;1.90;;;20.60;56.30;;;;;;4994740;28;20268;-68
2023/12/07 06:47:03;;;;;;;2.23;2.03;;;20.70;56.40;;;;;;4994597;28;20943;-68
2023/12/07 06:49:28;;;;;;;2.30;2.10;;;20.70;56.40;;;;;;4994653;28;20416;-67
2023/12/07 06:51:54;;;;;;;2.17;1.97;;;20.70;56.40;;;;;;4994624;28;20507;-68
2023/12/07 06:54:20;;;;;;;2.60;2.40;;;20.70;56.40;;;;;;4994833;28;20181;-67
2023/12/07 06:56:46;;;;;;;2.00;1.83;;;20.70;56.30;;;;;;4993112;28;20213;-67
2023/12/07 06:59:11;;;;;;;2.67;2.47;;;20.70;56.40;;;;;;4993081;28;20568;-67
2023/12/07 07:01:38;;;;;;;3.40;3.00;;;20.70;56.30;;;;;;4994481;28;20472;-67
2023/12/07 07:04:03;;;;;;;5.70;3.47;;;20.70;56.30;;;;;;4994301;28;20227;-68
2023/12/07 07:06:29;;;;;;;5.13;3.37;;;20.70;56.30;;;;;;4992980;28;20436;-68
2023/12/07 07:08:55;;;;;;;4.40;3.50;;;20.70;56.30;;;;;;4994321;28;20227;-67
2023/12/07 07:11:20;;;;;;;4.53;3.60;;;20.70;56.30;;;;;;4994325;28;20537;-67
2023/12/07 07:13:46;;;;;;;3.90;3.20;;;20.80;56.40;;;;;;4994257;28;20219;-67
2023/12/07 07:16:11;;;;;;;4.47;3.60;;;20.80;56.40;;;;;;4994108;28;20224;-67
2023/12/07 07:18:38;;;;;;;3.27;2.97;;;20.80;56.40;;;;;;4994077;28;20573;-67
2023/12/07 07:21:04;;;;;;;3.83;3.50;;;20.80;56.40;;;;;;4994041;28;20267;-68
2023/12/07 07:23:30;;;;;;;4.40;3.90;;;20.80;56.40;;;;;;4994079;28;20412;-67
2023/12/07 07:25:55;;;;;;;4.83;3.60;;;20.80;56.40;;;;;;4993874;28;21090;-68
2023/12/07 07:28:21;;;;;;;6.57;3.90;;;20.80;56.40;;;;;;5008860;28;20188;-67
2023/12/07 07:30:47;;;;;;;4.77;3.70;;;20.80;56.30;;;;;;5013502;28;20267;-67
2023/12/07 07:33:12;;;;;;;7.00;3.80;;;20.80;56.30;;;;;;5013432;28;20177;-68
2023/12/07 07:35:38;;;;;;;4.40;3.40;;;20.80;56.30;;;;;;5013525;28;20549;-68
2023/12/07 07:38:03;;;;;;;4.10;3.30;;;20.80;56.40;;;;;;5013348;28;20243;-67
2023/12/07 07:40:29;;;;;;;5.47;4.07;;;20.80;56.30;;;;;;5013359;28;20256;-67
2023/12/07 07:42:54;;;;;;;4.60;3.87;;;20.80;56.30;;;;;;5013263;28;20180;-67
2023/12/07 07:45:20;;;;;;;4.67;3.40;;;20.80;56.30;;;;;;5013069;28;20810;-67
2023/12/07 07:47:46;;;;;;;4.60;3.50;;;20.90;56.40;;;;;;5012049;28;20168;-67
2023/12/07 07:50:11;;;;;;;5.50;4.57;;;20.90;56.40;;;;;;5013189;28;20172;-67
2023/12/07 07:52:37;;;;;;;4.57;4.00;;;20.90;56.40;;;;;;5013077;28;20172;-68
2023/12/07 07:55:07;;;;;;;6.07;4.50;;;20.90;56.40;;;;;;5012860;28;20196;-67
2023/12/07 07:57:32;;;;;;;3.87;3.47;;;20.90;56.40;;;;;;5012976;28;20713;-67
2023/12/07 07:59:58;;;;;;;6.70;4.07;;;20.90;56.40;;;;;;5012856;28;20447;-67
2023/12/07 08:02:24;;;;;;;5.67;4.40;;;20.90;56.40;;;;;;5012906;28;20252;-68
2023/12/07 08:04:51;;;;;;;4.30;3.60;;;20.90;56.40;;;;;;5012643;28;20203;-67
2023/12/07 08:07:17;;;;;;;4.50;3.80;;;20.90;56.40;;;;;;5012788;28;20407;-68
2023/12/07 08:09:43;;;;;;;5.23;4.20;;;20.90;56.40;;;;;;5012626;28;20474;-68
2023/12/07 08:12:08;;;;;;;4.13;3.13;;;20.90;56.40;;;;;;5011598;28;20423;-68
2023/12/07 08:14:37;;;;;;;5.90;3.73;;;20.90;56.40;;;;;;5012600;28;20246;-67
2023/12/07 08:17:03;;;;;;;5.90;4.00;;;20.90;56.40;;;;;;5012435;28;20717;-68
2023/12/07 08:19:29;;;;;;;5.03;3.30;;;20.90;56.40;;;;;;5011065;28;20531;-68
2023/12/07 08:21:55;;;;;;;5.27;3.23;;;20.90;56.40;;;;;;5012502;28;20415;-67
2023/12/07 08:24:20;;;;;;;3.53;3.23;;;20.90;56.40;;;;;;5012512;28;20195;-67
2023/12/07 08:26:46;;;;;;;5.37;3.57;;;20.90;56.40;;;;;;5012291;28;20282;-67
2023/12/07 08:29:12;;;;;;;5.03;3.70;;;20.90;56.40;;;;;;5012281;28;20283;-68
2023/12/07 08:31:40;;;;;;;3.27;2.97;;;20.90;56.40;;;;;;5012290;28;20967;-68
2023/12/07 08:34:05;;;;;;;5.40;3.90;;;20.90;56.40;;;;;;5012169;28;20411;-68
2023/12/07 08:36:31;;;;;;;4.67;3.57;;;20.90;56.40;;;;;;5012129;28;20450;-68
2023/12/07 08:38:56;;;;;;;5.00;4.00;;;20.90;56.40;;;;;;5012289;28;20207;-68
2023/12/07 08:41:23;;;;;;;4.27;3.63;;;20.90;56.40;;;;;;5012028;28;20176;-67
2023/12/07 08:43:49;;;;;;;5.10;4.10;;;20.90;56.40;;;;;;5012055;28;20232;-67
2023/12/07 08:46:14;;;;;;;5.70;4.10;;;20.90;56.40;;;;;;5011860;28;20514;-68
2023/12/07 08:48:40;;;;;;;6.10;4.23;;;20.90;56.40;;;;;;5011975;28;20664;-67
2023/12/07 08:51:08;;;;;;;4.30;3.80;;;20.90;56.40;;;;;;5011912;28;20259;-67
2023/12/07 08:53:34;;;;;;;5.63;3.90;;;20.90;56.40;;;;;;5010521;28;20215;-67
2023/12/07 08:56:00;;;;;;;3.70;3.40;;;20.90;56.40;;;;;;5011694;28;20446;-68
2023/12/07 08:58:27;;;;;;;4.23;3.87;;;20.90;56.40;;;;;;5011437;28;20896;-67
2023/12/07 09:00:52;;;;;;;6.40;4.07;;;20.90;56.40;;;;;;5011758;28;20419;-68
2023/12/07 09:03:18;;;;;;;4.40;4.00;;;20.90;56.40;;;;;;5011911;28;20411;-67
2023/12/07 09:05:43;;;;;;;4.10;2.93;;;20.90;56.40;;;;;;5011554;28;20188;-68
2023/12/07 09:08:09;;;;;;;5.47;3.97;;;20.90;56.40;;;;;;5011924;28;20283;-68
2023/12/07 09:10:35;;;;;;;4.47;3.23;;;20.90;56.50;;;;;;5011746;28;20179;-67
2023/12/07 09:13:01;;;;;;;4.83;3.97;;;20.90;56.40;;;;;;5011480;28;20414;-67
2023/12/07 09:15:26;;;;;;;3.40;3.10;;;20.90;56.40;;;;;;5011376;28;20203;-67
2023/12/07 09:17:52;;;;;;;5.03;3.77;;;20.90;56.40;;;;;;5011379;28;20733;-68
2023/12/07 09:20:18;;;;;;;3.20;2.90;;;20.90;56.40;;;;;;5011257;28;20188;-68
2023/12/07 09:22:44;;;;;;;3.70;3.10;;;20.90;56.40;;;;;;5011329;28;20191;-68
2023/12/07 09:25:11;;;;;;;4.10;3.10;;;20.90;56.50;;;;;;5011032;28;20212;-68
2023/12/07 09:27:37;;;;;;;5.20;4.43;;;20.90;56.40;;;;;;5011342;28;20430;-67
2023/12/07 09:30:10;;;;;;;5.40;3.80;;;20.90;56.50;;;;;;5011167;28;20832;-67
2023/12/07 09:32:38;;;;;;;3.43;3.10;;;20.90;56.50;;;;;;5011185;28;20426;-68
2023/12/07 09:35:07;;;;;;;3.27;2.80;;;20.90;56.50;;;;;;5010986;28;20458;-68
2023/12/07 09:37:34;;;;;;;4.57;3.70;;;20.90;56.50;;;;;;5010811;28;20415;-68
2023/12/07 09:40:01;;;;;;;4.23;3.80;;;20.90;56.50;;;;;;5010880;28;20562;-66
2023/12/07 09:42:27;;;;;;;3.77;2.90;;;20.90;56.50;;;;;;5010994;28;20403;-68
2023/12/07 09:44:53;;;;;;;4.33;3.50;;;20.90;56.50;;;;;;5010810;28;20438;-67
2023/12/07 09:47:19;;;;;;;4.20;3.23;;;20.90;56.50;;;;;;5011187;28;20911;-67
2023/12/07 09:49:45;;;;;;;3.83;3.47;;;20.90;56.40;;;;;;5010816;28;20435;-67
2023/12/07 09:52:11;;;;;;;3.80;3.23;;;20.90;56.40;;;;;;5010673;28;20437;-68
2023/12/07 09:54:41;;;;;;;4.30;3.10;;;20.90;56.40;;;;;;5009474;28;20173;-67
2023/12/07 09:57:09;;;;;;;5.53;3.27;;;20.90;56.40;;;;;;5010843;28;20411;-68
2023/12/07 09:59:35;;;;;;;3.50;3.20;;;20.90;56.40;;;;;;5010627;28;20485;-68
2023/12/07 10:02:01;;;;;;;4.70;3.30;;;20.90;56.40;;;;;;5010680;28;21020;-69
2023/12/07 10:04:27;;;;;;;3.67;2.77;;;20.90;56.40;;;;;;5010611;28;20446;-69
2023/12/07 10:06:53;;;;;;;3.33;3.00;;;20.90;56.40;;;;;;5010514;28;20196;-68
2023/12/07 10:09:20;;;;;;;3.83;3.43;;;20.90;56.40;;;;;;5010234;28;20180;-68
2023/12/07 10:11:46;;;;;;;3.27;2.97;;;20.90;56.50;;;;;;5010494;28;20415;-68
2023/12/07 10:14:12;;;;;;;3.60;3.30;;;20.90;56.40;;;;;;5010475;28;20490;-69
2023/12/07 10:16:38;;;;;;;5.20;3.20;;;20.90;56.40;;;;;;5008958;28;20530;-69
2023/12/07 10:19:19;;;;;;;4.47;3.70;;;20.90;56.50;;;;;;5010604;28;20216;-68
2023/12/07 10:21:45;;;;;;;3.87;3.57;;;20.90;56.40;;;;;;5010377;28;20799;-68
2023/12/07 10:24:11;;;;;;;2.90;2.60;;;20.90;56.50;;;;;;5010349;28;20418;-68
2023/12/07 10:26:40;;;;;;;5.00;3.30;;;20.90;57.00;;;;;;5010165;28;20459;-68
2023/12/07 10:29:06;;;;;;;4.60;3.20;;;20.90;56.50;;;;;;5010252;28;20177;-68
2023/12/07 10:31:32;;;;;;;2.83;2.53;;;20.90;56.50;;;;;;5010266;28;20415;-68
2023/12/07 10:34:01;;;;;;;2.70;2.50;;;20.90;56.50;;;;;;5010300;28;20866;-67
2023/12/07 10:36:27;;;;;;;3.93;3.00;;;20.90;56.50;;;;;;5010314;28;20443;-68
2023/12/07 10:38:53;;;;;;;3.33;3.00;;;20.90;56.50;;;;;;5010176;28;20554;-67
2023/12/07 10:41:20;;;;;;;4.83;3.57;;;20.90;56.50;;;;;;5010332;28;20538;-69
2023/12/07 10:43:53;;;;;;;4.37;3.20;;;20.90;57.00;;;;;;5010387;28;20415;-68
2023/12/07 10:46:21;;;;;;;3.60;3.10;;;21.00;56.50;;;;;;5010425;28;20438;-69
2023/12/07 10:48:48;;;;;;;3.30;3.00;;;20.90;56.50;;;;;;5010135;28;20417;-68
2023/12/07 10:51:25;;;;;;;3.30;2.83;;;20.90;56.50;;;;;;5010094;28;20506;-68
2023/12/07 10:53:53;;;;;;;2.70;2.50;;;20.90;56.50;;;;;;5010284;28;20422;-68
2023/12/07 10:56:36;;;;;;;4.20;3.30;;;20.90;56.50;;;;;;5010067;28;20443;-69
2023/12/07 10:59:02;;;;;;;3.47;3.10;;;20.90;56.50;;;;;;5008728;28;20529;-68
2023/12/07 11:01:28;;;;;;;2.80;2.60;;;20.90;56.50;;;;;;5010145;28;20826;-69
2023/12/07 11:03:56;;;;;;;4.10;2.80;;;20.90;56.50;;;;;;5009977;28;20177;-67
2023/12/07 11:06:22;;;;;;;3.70;2.80;;;20.90;56.50;;;;;;5009923;28;20845;-67
2023/12/07 11:08:53;;;;;;;4.50;3.00;;;20.90;56.50;;;;;;5009961;28;20411;-65
2023/12/07 11:11:33;;;;;;;3.33;3.03;;;20.90;56.50;;;;;;5009968;28;20427;-68
2023/12/07 11:14:03;;;;;;;3.53;3.23;;;20.90;56.50;;;;;;5010214;28;20395;-68
2023/12/07 11:16:47;;;;;;;3.23;2.93;;;20.90;56.40;;;;;;5008414;28;21035;-68
2023/12/07 11:19:32;;;;;;;3.03;2.63;;;20.90;56.50;;;;;;5009803;28;20501;-67
2023/12/07 11:22:01;;;;;;;3.80;3.27;;;20.90;56.50;;;;;;5012445;28;20914;-68
2023/12/07 11:24:27;;;;;;;4.10;2.70;;;20.90;56.50;;;;;;5013379;28;20438;-67
2023/12/07 11:26:56;;;;;;;3.00;2.40;;;20.90;56.50;;;;;;5013731;28;20810;-67
2023/12/07 11:29:26;;;;;;;3.50;2.47;;;20.90;56.50;;;;;;5013396;28;20172;-68
2023/12/07 11:31:56;;;;;;;3.77;3.37;;;20.90;56.50;;;;;;5013320;28;20430;-68
2023/12/07 11:34:48;;;;;;;3.17;2.73;;;20.90;56.50;;;;;;5013382;28;20993;-68
2023/12/07 11:37:17;;;;;;;2.90;2.60;;;20.90;56.50;;;;;;5012055;28;20458;-67
2023/12/07 11:39:46;;;;;;;2.90;2.60;;;20.90;56.50;;;;;;5013086;28;20447;-67
2023/12/07 11:42:16;;;;;;;3.03;2.77;;;20.90;56.50;;;;;;5013207;28;20526;-67
2023/12/07 11:44:46;;;;;;;3.70;2.70;;;20.90;56.50;;;;;;5012974;28;20847;-68
2023/12/07 11:47:19;;;;;;;2.40;2.20;;;20.90;56.50;;;;;;5013102;28;20420;-68
2023/12/07 11:49:46;;;;;;;3.13;2.37;;;20.90;56.50;;;;;;5013081;28;20445;-67
2023/12/07 11:52:16;;;;;;;3.10;2.80;;;20.90;56.50;;;;;;5013013;28;20510;-68
2023/12/07 11:54:45;;;;;;;3.70;2.93;;;20.90;56.50;;;;;;5012632;28;20446;-68
2023/12/07 11:57:10;;;;;;;2.97;2.67;;;20.90;56.60;;;;;;5013154;28;20473;-68
2023/12/07 11:59:36;;;;;;;4.10;2.80;;;20.90;56.60;;;;;;5011472;28;20463;-68
2023/12/07 12:02:02;;;;;;;3.00;2.47;;;20.90;56.60;;;;;;5011455;28;20569;-68
2023/12/07 12:04:28;;;;;;;2.53;2.33;;;20.90;56.60;;;;;;5012762;28;20224;-67
2023/12/07 12:06:54;;;;;;;3.90;2.63;;;20.90;56.60;;;;;;5012665;28;20192;-68
2023/12/07 12:09:20;;;;;;;3.10;2.70;;;20.90;56.60;;;;;;5011447;28;20419;-68
2023/12/07 12:11:46;;;;;;;2.83;2.60;;;20.90;56.60;;;;;;5012621;28;20176;-67
2023/12/07 12:14:19;;;;;;;3.80;2.67;;;20.90;56.60;;;;;;5011719;28;20279;-68
2023/12/07 12:16:48;;;;;;;2.73;2.20;;;20.90;56.50;;;;;;5012383;28;21024;-68
2023/12/07 12:19:16;;;;;;;2.83;2.43;;;20.90;56.60;;;;;;5012474;28;20494;-68
2023/12/07 12:21:43;;;;;;;2.67;2.47;;;20.90;56.60;;;;;;5012534;28;20407;-68
2023/12/07 12:24:09;;;;;;;5.40;3.97;;;20.90;56.50;;;;;;5010930;28;20435;-64
2023/12/07 12:26:39;;;;;;;2.80;2.60;;;20.90;56.50;;;;;;5010852;28;20549;-68
2023/12/07 12:29:08;;;;;;;3.13;2.80;;;20.90;56.50;;;;;;5012250;28;20426;-69
2023/12/07 12:31:34;;;;;;;4.20;2.80;;;20.90;56.50;;;;;;5012243;28;20411;-67
2023/12/07 12:34:05;;;;;;;6.40;4.50;;;20.90;56.50;;;;;;5010269;28;20423;-67
2023/12/07 12:36:31;;;;;;;13.40;8.40;;;20.90;56.50;;;;;;5012055;28;20455;-67
2023/12/07 12:38:57;;;;;;;15.53;9.20;;;20.90;56.50;;;;;;5012030;28;21431;-69
2023/12/07 12:41:23;;;;;;;15.93;9.20;;;20.90;57.00;;;;;;5012047;28;20268;-69
2023/12/07 12:43:51;;;;;;;19.80;12.57;;;20.90;56.50;;;;;;5012153;28;20200;-66